Time;durP1;ratioP1;P1;durP2;ratioP2;P2;SDS_P1;SDS_P2;PMS_P1;PMS_P2;Temp;Humidity;BMP_temperature;BMP_pressure;BME280_temperature;BME280_humidity;BME280_pressure;Samples;Min_cycle;Max_cycle;Signal;HPM_P1;HPM_P2
2023/10/13 00:00:25;;;;;;;;;;;;;;;22.19;51.61;95855.69;10437920;28;2752;-58
2023/10/13 00:05:26;;;;;;;;;;;;;;;22.19;51.90;95849.63;10433909;28;2089;-59
2023/10/13 00:10:27;;;;;;;;;;;;;;;22.19;51.94;95850.41;10435898;28;1874;-59
2023/10/13 00:15:27;;;;;;;;;;;;;;;22.19;51.58;95860.97;10433473;28;1987;-59
2023/10/13 00:20:34;;;;;;;;;;;;;;;22.19;51.74;95860.19;10437391;28;1942;-59
2023/10/13 00:25:43;;;;;;;;;;;;;;;22.19;51.78;95860.19;10435767;28;1848;-59
2023/10/13 00:30:50;;;;;;;;;;;;;;;22.19;51.65;95846.97;10431074;28;1878;-60
2023/10/13 00:35:53;;;;;;;;;;;;;;;22.19;51.69;95846.97;10430575;28;1898;-59
2023/10/13 00:40:54;;;;;;;;;;;;;;;22.18;51.46;95850.69;10430038;28;4717;-59
2023/10/13 00:45:58;;;;;;;;;;;;;;;22.18;51.56;95854.13;10435627;28;3256;-59
2023/10/13 00:51:08;;;;;;;;;;;;;;;22.18;51.35;95848.03;10431912;28;2119;-60
2023/10/13 00:56:18;;;;;;;;;;;;;;;22.18;51.23;95848.03;10443294;28;2029;-59
2023/10/13 01:01:21;;;;;;;;;;;;;;;22.18;51.30;95848.84;10442379;28;1990;-59
2023/10/13 01:06:28;;;;;;;;;;;;;;;22.17;51.48;95854.41;10440494;28;2216;-59
2023/10/13 01:11:29;;;;;;;;;;;;;;;22.18;51.04;95855.97;10437916;28;2008;-59
2023/10/13 01:16:30;;;;;;;;;;;;;;;22.17;50.94;95849.91;10441785;28;1969;-59
2023/10/13 01:21:30;;;;;;;;;;;;;;;22.17;51.37;95849.13;10442392;28;2019;-59
2023/10/13 01:26:35;;;;;;;;;;;;;;;22.17;51.20;95847.28;10444949;28;2207;-59
2023/10/13 01:31:37;;;;;;;;;;;;;;;22.16;51.03;95839.59;10440081;28;2916;-59
2023/10/13 01:36:40;;;;;;;;;;;;;;;22.15;50.88;95838.84;10441369;28;2277;-60
2023/10/13 01:41:40;;;;;;;;;;;;;;;22.15;51.07;95833.56;10436282;28;4669;-59
2023/10/13 01:46:42;;;;;;;;;;;;;;;22.15;51.02;95841.50;10442745;28;2013;-59
2023/10/13 01:51:42;;;;;;;;;;;;;;;22.16;50.80;95842.25;10447893;28;1899;-59
2023/10/13 01:56:43;;;;;;;;;;;;;;;22.15;51.00;95854.69;10444375;28;2216;-59
2023/10/13 02:01:43;;;;;;;;;;;;;;;22.14;50.66;95849.66;10444340;28;1981;-59
2023/10/13 02:06:44;;;;;;;;;;;;;;;22.14;50.68;95847.03;10439738;28;2003;-59
2023/10/13 02:11:47;;;;;;;;;;;;;;;22.13;50.84;95840.97;10437681;28;1974;-59
2023/10/13 02:16:49;;;;;;;;;;;;;;;22.13;50.52;95843.63;10437644;28;3000;-59
2023/10/13 02:21:58;;;;;;;;;;;;;;;22.13;50.83;95842.84;10437023;28;2031;-59
2023/10/13 02:27:08;;;;;;;;;;;;;;;22.13;50.69;95845.47;10438951;28;1951;-60
2023/10/13 02:32:18;;;;;;;;;;;;;;;22.12;50.51;95844.69;10435814;28;1933;-59
2023/10/13 02:37:20;;;;;;;;;;;;;;;22.11;50.70;95837.84;10437825;28;1968;-59
2023/10/13 02:42:23;;;;;;;;;;;;;;;22.12;50.38;95842.03;10436829;28;4666;-58
2023/10/13 02:47:24;;;;;;;;;;;;;;;22.11;50.56;95840.47;10433256;28;1987;-59
2023/10/13 02:52:24;;;;;;;;;;;;;;;22.12;50.33;95838.59;10435519;28;2059;-58
2023/10/13 02:57:24;;;;;;;;;;;;;;;22.10;50.35;95830.19;10435373;28;1991;-59
2023/10/13 03:02:28;;;;;;;;;;;;;;;22.10;50.33;95830.97;10435171;28;2889;-59
2023/10/13 03:07:28;;;;;;;;;;;;;;;22.10;50.54;95830.97;10437595;28;2058;-59
2023/10/13 03:12:33;;;;;;;;;;;;;;;22.10;50.45;95825.69;10439122;28;2010;-59
2023/10/13 03:17:33;;;;;;;;;;;;;;;22.09;50.25;95834.66;10436718;28;1932;-59
2023/10/13 03:22:33;;;;;;;;;;;;;;;22.09;50.14;95824.09;10434435;28;1948;-59
2023/10/13 03:32:55;;;;;;;;;;;;;;;22.09;50.36;95825.97;10433741;28;1975;-60
2023/10/13 03:37:56;;;;;;;;;;;;;;;22.07;50.28;95815.69;10436200;28;7392;-60
2023/10/13 03:48:08;;;;;;;;;;;;;;;22.07;50.12;95820.97;10430175;28;2090;-60
2023/10/13 03:53:12;;;;;;;;;;;;;;;22.08;50.03;95812.00;10432934;28;5498;-60
2023/10/13 03:58:13;;;;;;;;;;;;;;;22.07;50.08;95813.03;10436879;28;2198;-60
2023/10/13 04:03:19;;;;;;;;;;;;;;;22.08;49.99;95825.19;10432874;28;1982;-60
2023/10/13 04:19:29;;;;;;;;;;;;;;;22.06;50.21;95814.13;10437240;28;1971;-58
2023/10/13 04:24:21;;;;;;;;;;;;;;;22.06;49.87;95810.69;10429670;28;2407;-60
2023/10/13 04:29:45;;;;;;;;;;;;;;;22.06;49.91;95803.56;10445798;28;1985;-59
2023/10/13 04:34:45;;;;;;;;;;;;;;;22.06;49.91;95798.28;10448875;28;1995;-60
2023/10/13 04:39:50;;;;;;;;;;;;;;;22.06;50.04;95794.84;10448289;28;1968;-59
2023/10/13 04:44:54;;;;;;;;;;;;;;;22.04;50.00;95787.22;10446674;28;2991;-60
2023/10/13 04:50:00;;;;;;;;;;;;;;;22.05;49.67;95796.69;10442135;28;1959;-60
2023/10/13 04:55:16;;;;;;;;;;;;;;;22.04;49.84;95789.84;10448233;28;2076;-60
2023/10/13 06:28:40;;;;;;;;;;;;;;;22.03;49.61;95798.84;10437887;28;2467;-59
2023/10/13 06:29:56;;;;;;;;;;;;;;;21.17;42.13;95809.38;10440347;28;2136;-60
2023/10/13 06:34:57;;;;;;;;;;;;;;;21.08;41.32;95817.09;10435805;28;1951;-60
2023/10/13 06:40:14;;;;;;;;;;;;;;;21.00;41.31;95812.38;10432230;28;2375;-59
2023/10/13 06:45:16;;;;;;;;;;;;;;;20.91;40.52;95819.31;10434248;28;4974;-60
2023/10/13 06:50:19;;;;;;;;;;;;;;;20.93;41.12;95816.38;10438460;28;1883;-60
2023/10/13 06:55:27;;;;;;;;;;;;;;;20.97;41.38;95820.84;10438204;28;1982;-59
2023/10/13 07:00:30;;;;;;;;;;;;;;;21.00;41.46;95820.28;10437056;28;1986;-60
2023/10/13 07:05:32;;;;;;;;;;;;;;;21.03;41.43;95827.69;10438495;28;1904;-60
2023/10/13 07:10:44;;;;;;;;;;;;;;;21.05;41.18;95830.84;10437754;28;2011;-59
2023/10/13 07:15:45;;;;;;;;;;;;;;;21.10;41.46;95826.59;10440385;28;1970;-60
2023/10/13 07:20:45;;;;;;;;;;;;;;;21.13;41.63;95828.66;10442385;28;1999;-59
2023/10/13 07:25:54;;;;;;;;;;;;;;;21.17;41.46;95832.31;10436405;28;2482;-59
2023/10/13 07:36:10;;;;;;;;;;;;;;;21.23;41.56;95823.31;10436257;28;1861;-59
2023/10/13 07:41:15;;;;;;;;;;;;;;;21.28;42.02;95818.00;10436458;28;1973;-59
2023/10/13 07:46:16;;;;;;;;;;;;;;;21.29;41.75;95811.69;10436868;28;1955;-60
2023/10/13 07:51:16;;;;;;;;;;;;;;;21.33;41.86;95810.06;10433933;28;1967;-58
2023/10/13 07:56:19;;;;;;;;;;;;;;;21.34;41.99;95814.25;10438890;28;1885;-60
2023/10/13 08:01:19;;;;;;;;;;;;;;;21.36;41.83;95814.78;10428602;28;1979;-59
2023/10/13 08:06:19;;;;;;;;;;;;;;;21.39;41.99;95812.38;10434538;28;1924;-58
2023/10/13 08:16:23;;;;;;;;;;;;;;;21.47;42.41;95818.91;10438350;28;1963;-59
2023/10/13 08:21:23;;;;;;;;;;;;;;;21.50;42.81;95808.59;10431619;28;1922;-59
2023/10/13 08:32:34;;;;;;;;;;;;;;;21.58;43.91;95815.91;10416551;28;1909;-59
2023/10/13 08:38:17;;;;;;;;;;;;;;;21.64;44.38;95806.06;10430793;28;1866;-60
2023/10/13 08:48:12;;;;;;;;;;;;;;;21.72;45.09;95806.25;10426617;28;1830;-59
2023/10/13 08:53:28;;;;;;;;;;;;;;;21.76;45.29;95812.53;10433460;28;1930;-59
2023/10/13 08:59:04;;;;;;;;;;;;;;;21.79;45.17;95811.22;10425927;28;1811;-59
2023/10/13 09:03:49;;;;;;;;;;;;;;;21.79;45.60;95798.81;10429850;28;1914;-59
2023/10/13 09:09:05;;;;;;;;;;;;;;;21.83;45.69;95796.41;10433870;28;1902;-59
2023/10/13 09:14:20;;;;;;;;;;;;;;;21.87;45.90;95802.72;10435249;28;1894;-59
2023/10/13 09:19:21;;;;;;;;;;;;;;;21.92;45.86;95796.59;10439784;28;1752;-60
2023/10/13 09:29:21;;;;;;;;;;;;;;;21.94;45.43;95781.25;10438987;28;1891;-59
2023/10/13 09:34:23;;;;;;;;;;;;;;;21.95;45.99;95780.97;10440063;28;1846;-59
2023/10/13 09:39:29;;;;;;;;;;;;;;;21.98;45.77;95779.63;10438609;28;2428;-60
2023/10/13 09:44:31;;;;;;;;;;;;;;;21.99;46.05;95775.94;10434480;28;5552;-60
2023/10/13 09:49:44;;;;;;;;;;;;;;;22.00;46.10;95767.75;10439381;28;2029;-59
2023/10/13 09:54:48;;;;;;;;;;;;;;;22.06;46.29;95777.16;10434947;28;1826;-57
2023/10/13 09:59:51;;;;;;;;;;;;;;;22.07;46.04;95759.47;10436701;28;1950;-56
2023/10/13 10:04:52;;;;;;;;;;;;;;;22.09;46.03;95758.09;10436611;28;1949;-57
2023/10/13 10:09:56;;;;;;;;;;;;;;;22.08;46.09;95759.19;10434578;28;1928;-58
2023/10/13 10:15:20;;;;;;;;;;;;;;;22.09;46.01;95755.47;10443520;28;1913;-57
2023/10/13 10:20:41;;;;;;;;;;;;;;;22.10;46.04;95750.97;10439948;28;1975;-57
2023/10/13 10:25:44;;;;;;;;;;;;;;;22.12;46.30;95749.63;10436981;28;2414;-57
2023/10/13 10:30:44;;;;;;;;;;;;;;;22.13;46.62;95742.50;10440483;28;1861;-57
2023/10/13 10:35:46;;;;;;;;;;;;;;;22.15;46.46;95733.25;10444267;28;1818;-57
2023/10/13 10:40:56;;;;;;;;;;;;;;;22.16;46.43;95726.88;10441317;28;2241;-58
2023/10/13 10:45:59;;;;;;;;;;;;;;;22.18;46.59;95710.75;10442357;28;5178;-56
2023/10/13 10:51:07;;;;;;;;;;;;;;;22.19;46.60;95704.41;10441812;28;1862;-57
2023/10/13 10:56:19;;;;;;;;;;;;;;;22.20;46.73;95703.31;10436016;28;1970;-57
2023/10/13 11:01:20;;;;;;;;;;;;;;;22.22;46.69;95693.25;10438157;28;1955;-56
2023/10/13 11:06:24;;;;;;;;;;;;;;;22.26;46.93;95679.22;10433479;28;2036;-56
2023/10/13 11:11:35;;;;;;;;;;;;;;;22.27;47.06;95672.88;10438941;28;2569;-55
2023/10/13 11:16:38;;;;;;;;;;;;;;;22.29;47.40;95670.72;10441070;28;1885;-55
2023/10/13 11:21:38;;;;;;;;;;;;;;;22.31;47.06;95647.47;10437062;28;1949;-55
2023/10/13 11:26:49;;;;;;;;;;;;;;;22.35;47.08;95652.94;10436086;28;2074;-56
2023/10/13 11:31:57;;;;;;;;;;;;;;;22.35;47.23;95647.66;10430204;28;1882;-55
2023/10/13 11:37:14;;;;;;;;;;;;;;;22.38;47.55;95642.59;10416421;28;2002;-53
2023/10/13 11:42:17;;;;;;;;;;;;;;;22.38;47.43;95632.03;10413913;28;2090;-57
2023/10/13 11:48:09;;;;;;;;;;;;;;;22.39;47.71;95630.97;10414475;28;1878;-55
2023/10/13 11:52:38;;;;;;;;;;;;;;;22.44;47.47;95620.31;10421550;28;1994;-55
2023/10/13 11:57:40;;;;;;;;;;;;;;;22.44;47.32;95608.97;10437341;28;2497;-58
2023/10/13 12:08:03;;;;;;;;;;;;;;;22.45;47.44;95598.13;10428611;28;1956;-56
2023/10/13 12:13:08;;;;;;;;;;;;;;;22.48;47.27;95594.13;10429209;28;1954;-57
2023/10/13 12:18:14;;;;;;;;;;;;;;;22.50;47.47;95584.06;10434604;28;1986;-55
2023/10/13 12:23:20;;;;;;;;;;;;;;;22.52;47.53;95574.75;10431720;28;1906;-55
2023/10/13 12:28:23;;;;;;;;;;;;;;;22.53;47.05;95564.97;10428609;28;1853;-55
2023/10/13 12:33:24;;;;;;;;;;;;;;;22.54;46.06;95566.56;10431709;28;1842;-57
2023/10/13 12:38:37;;;;;;;;;;;;;;;22.52;45.74;95564.19;10432822;28;1838;-56
2023/10/13 12:49:04;;;;;;;;;;;;;;;22.55;45.95;95541.69;10437948;28;1886;-56
2023/10/13 12:54:24;;;;;;;;;;;;;;;22.55;46.11;95531.91;10431365;28;1924;-57
2023/10/13 12:59:26;;;;;;;;;;;;;;;22.58;45.92;95520.81;10433604;28;1958;-58
2023/10/13 13:04:32;;;;;;;;;;;;;;;22.59;45.87;95522.34;10437893;28;1910;-59
2023/10/13 13:09:35;;;;;;;;;;;;;;;22.60;45.55;95515.22;10443028;28;1975;-59
2023/10/13 13:14:35;;;;;;;;;;;;;;;22.60;45.44;95512.59;10442497;28;1814;-59
2023/10/13 13:19:41;;;;;;;;;;;;;;;22.60;45.40;95505.44;10439538;28;1830;-56
2023/10/13 13:24:43;;;;;;;;;;;;;;;22.60;45.13;95496.72;10439826;28;1985;-57
2023/10/13 13:29:45;;;;;;;;;;;;;;;22.61;45.04;95483.22;10440150;28;1831;-58
2023/10/13 13:34:54;;;;;;;;;;;;;;;22.63;45.08;95480.28;10434595;28;1964;-58
2023/10/13 13:39:54;;;;;;;;;;;;;;;22.63;45.26;95478.44;10436071;28;2774;-59
2023/10/13 13:44:58;;;;;;;;;;;;;;;22.62;45.04;95463.66;10441210;28;4940;-58
2023/10/13 13:49:59;;;;;;;;;;;;;;;22.63;45.38;95459.16;10437680;28;1746;-57
2023/10/13 13:55:03;;;;;;;;;;;;;;;22.62;45.49;95452.31;10434315;28;1837;-58
2023/10/13 14:00:06;;;;;;;;;;;;;;;22.61;45.83;95446.25;10440196;28;1867;-58
2023/10/13 14:05:15;;;;;;;;;;;;;;;22.60;45.82;95442.03;10436512;28;1909;-57
2023/10/13 14:10:31;;;;;;;;;;;;;;;22.61;45.86;95434.88;10436122;28;1925;-58
2023/10/13 14:15:39;;;;;;;;;;;;;;;22.60;45.84;95426.19;10438439;28;1769;-57
2023/10/13 14:20:39;;;;;;;;;;;;;;;22.59;45.87;95424.63;10435535;28;2060;-58
2023/10/13 14:25:45;;;;;;;;;;;;;;;22.60;45.70;95428.03;10442302;28;2506;-58
2023/10/13 14:30:46;;;;;;;;;;;;;;;22.58;45.72;95412.50;10434882;28;2069;-59
2023/10/13 14:35:47;;;;;;;;;;;;;;;22.58;45.80;95415.13;10439312;28;1901;-59
2023/10/13 14:40:48;;;;;;;;;;;;;;;22.58;45.27;95412.50;10435409;28;1914;-59
2023/10/13 14:45:49;;;;;;;;;;;;;;;22.59;45.38;95400.03;10434118;28;4850;-58
2023/10/13 14:50:49;;;;;;;;;;;;;;;22.59;45.51;95394.75;10435119;28;2128;-58
2023/10/13 14:55:51;;;;;;;;;;;;;;;22.57;45.49;95387.13;10435959;28;1870;-57
2023/10/13 15:00:52;;;;;;;;;;;;;;;22.58;45.61;95382.66;10431887;28;1955;-57
2023/10/13 15:05:55;;;;;;;;;;;;;;;22.56;45.22;95380.28;10434328;28;1815;-56
2023/10/13 15:10:55;;;;;;;;;;;;;;;22.58;45.27;95394.00;10439779;28;2665;-58
2023/10/13 15:15:58;;;;;;;;;;;;;;;22.58;44.65;95378.16;10435366;28;1866;-58
2023/10/13 15:20:58;;;;;;;;;;;;;;;22.58;44.58;95380.78;10430915;28;1906;-58
2023/10/13 15:26:06;;;;;;;;;;;;;;;22.57;44.79;95365.97;10435512;28;1923;-59
2023/10/13 15:31:22;;;;;;;;;;;;;;;22.58;44.68;95362.31;10442469;28;1795;-55
2023/10/13 15:36:23;;;;;;;;;;;;;;;22.59;45.01;95363.06;10440505;28;1889;-58
2023/10/13 15:41:24;;;;;;;;;;;;;;;22.61;45.17;95364.34;10437596;28;1977;-58
2023/10/13 15:46:24;;;;;;;;;;;;;;;22.62;45.58;95362.50;10438989;28;5369;-58
2023/10/13 15:51:27;;;;;;;;;;;;;;;22.63;45.57;95356.91;10421000;28;1992;-58
2023/10/13 15:56:27;;;;;;;;;;;;;;;22.65;45.87;95356.59;10434011;28;2019;-60
2023/10/13 16:01:28;;;;;;;;;;;;;;;22.64;45.91;95347.91;10439581;28;1914;-59
2023/10/13 16:06:29;;;;;;;;;;;;;;;22.63;46.02;95335.75;10440755;28;1834;-59
2023/10/13 16:11:29;;;;;;;;;;;;;;;22.64;46.17;95344.47;10434776;28;2320;-60
2023/10/13 16:16:30;;;;;;;;;;;;;;;22.64;46.23;95347.91;10431251;28;1993;-60
2023/10/13 16:21:30;;;;;;;;;;;;;;;22.64;46.30;95344.47;10436619;28;1942;-60
2023/10/13 16:26:30;;;;;;;;;;;;;;;22.64;46.50;95347.91;10430989;28;2013;-59
2023/10/13 16:31:30;;;;;;;;;;;;;;;22.63;46.52;95343.69;10435000;28;1888;-60
2023/10/13 16:36:31;;;;;;;;;;;;;;;22.63;46.47;95343.69;10437749;28;1815;-59
2023/10/13 16:41:31;;;;;;;;;;;;;;;22.63;46.71;95351.63;10432310;28;4670;-60
2023/10/13 16:46:33;;;;;;;;;;;;;;;22.63;46.67;95354.25;10438664;28;1905;-59
2023/10/13 16:51:34;;;;;;;;;;;;;;;22.63;46.68;95356.91;10439467;28;1969;-60
2023/10/13 16:56:35;;;;;;;;;;;;;;;22.62;46.67;95355.34;10437582;28;1873;-59
2023/10/13 17:01:36;;;;;;;;;;;;;;;22.62;46.74;95352.72;10437048;28;1986;-60
2023/10/13 17:06:37;;;;;;;;;;;;;;;22.62;47.10;95358.00;10436380;28;1941;-59
2023/10/13 17:11:40;;;;;;;;;;;;;;;22.63;47.09;95350.81;10430953;28;1892;-60
2023/10/13 17:16:43;;;;;;;;;;;;;;;22.62;47.07;95352.72;10433597;28;1894;-60
2023/10/13 17:21:44;;;;;;;;;;;;;;;22.61;47.12;95361.69;10431719;28;1914;-60
2023/10/13 17:26:46;;;;;;;;;;;;;;;22.61;46.98;95361.69;10433845;28;2679;-59
2023/10/13 17:31:48;;;;;;;;;;;;;;;22.62;46.96;95362.50;10405968;28;1835;-59
2023/10/13 17:36:48;;;;;;;;;;;;;;;22.62;47.18;95358.00;10441660;28;2099;-59
2023/10/13 17:41:49;;;;;;;;;;;;;;;22.62;47.38;95363.28;10439809;28;4514;-58
2023/10/13 17:46:49;;;;;;;;;;;;;;;22.61;47.00;95363.56;10443960;28;1918;-57
2023/10/13 17:51:49;;;;;;;;;;;;;;;22.62;47.19;95368.56;10440816;28;1993;-58
2023/10/13 17:56:50;;;;;;;;;;;;;;;22.61;47.18;95369.63;10441427;28;1985;-58
2023/10/13 18:01:51;;;;;;;;;;;;;;;22.61;47.24;95374.13;10443619;28;1946;-58
2023/10/13 18:06:52;;;;;;;;;;;;;;;22.61;47.38;95361.69;10435226;28;1898;-60
2023/10/13 18:11:54;;;;;;;;;;;;;;;22.61;47.07;95360.91;10440744;28;2607;-59
2023/10/13 18:16:54;;;;;;;;;;;;;;;22.60;47.08;95352.22;10439341;28;1903;-59
2023/10/13 18:21:58;;;;;;;;;;;;;;;22.60;47.09;95354.06;10441797;28;1886;-60
2023/10/13 18:27:00;;;;;;;;;;;;;;;22.60;47.24;95354.88;10437258;28;1861;-60
2023/10/13 18:32:04;;;;;;;;;;;;;;;22.60;47.40;95349.59;10440382;28;2010;-60
2023/10/13 18:37:09;;;;;;;;;;;;;;;22.60;47.33;95339.00;10435586;28;1843;-59
2023/10/13 18:42:10;;;;;;;;;;;;;;;22.61;47.25;95339.78;10438052;28;4621;-59
2023/10/13 18:47:10;;;;;;;;;;;;;;;22.61;47.39;95340.56;10434904;28;1830;-59
2023/10/13 18:52:10;;;;;;;;;;;;;;;22.60;47.18;95341.66;10442745;28;1924;-59
2023/10/13 18:57:13;;;;;;;;;;;;;;;22.60;47.26;95336.38;10435328;28;2538;-59
2023/10/13 19:02:14;;;;;;;;;;;;;;;22.60;47.11;95341.66;10439071;28;1914;-60
2023/10/13 19:07:14;;;;;;;;;;;;;;;22.60;47.15;95339.00;10439401;28;1913;-57
2023/10/13 19:12:14;;;;;;;;;;;;;;;22.60;47.21;95343.50;10442823;28;1896;-60
2023/10/13 19:17:16;;;;;;;;;;;;;;;22.60;47.22;95341.66;10437940;28;1941;-58
2023/10/13 19:22:16;;;;;;;;;;;;;;;22.60;47.14;95344.31;10437373;28;1917;-58
2023/10/13 19:27:16;;;;;;;;;;;;;;;22.60;47.61;95344.31;10435808;28;1899;-58
2023/10/13 19:32:16;;;;;;;;;;;;;;;22.59;47.36;95345.34;10438153;28;1914;-58
2023/10/13 19:37:17;;;;;;;;;;;;;;;22.60;47.26;95338.22;10435597;28;1938;-58
2023/10/13 19:42:20;;;;;;;;;;;;;;;22.60;47.23;95335.59;10432414;28;4571;-60
2023/10/13 19:47:21;;;;;;;;;;;;;;;22.59;47.20;95334.78;10435121;28;1954;-60
2023/10/13 19:52:23;;;;;;;;;;;;;;;22.58;47.26;95333.25;10438165;28;2251;-58
2023/10/13 19:57:23;;;;;;;;;;;;;;;22.59;47.28;95328.72;10432452;28;1882;-59
2023/10/13 20:02:24;;;;;;;;;;;;;;;22.60;47.27;95330.31;10436308;28;1977;-59
2023/10/13 20:07:26;;;;;;;;;;;;;;;22.59;47.51;95318.94;10437336;28;1908;-59
2023/10/13 20:12:26;;;;;;;;;;;;;;;22.59;47.41;95324.22;10434175;28;1909;-59
2023/10/13 20:17:28;;;;;;;;;;;;;;;22.58;47.21;95311.31;10439020;28;1896;-59
2023/10/13 20:22:29;;;;;;;;;;;;;;;22.59;47.15;95321.59;10436747;28;1969;-58
2023/10/13 20:27:31;;;;;;;;;;;;;;;22.59;47.09;95315.50;10432774;28;2751;-59
2023/10/13 20:32:34;;;;;;;;;;;;;;;22.59;46.99;95312.88;10432695;28;2171;-59
2023/10/13 20:37:34;;;;;;;;;;;;;;;22.59;47.06;95318.94;10434651;28;1945;-59
2023/10/13 20:42:35;;;;;;;;;;;;;;;22.60;47.15;95319.72;10429625;28;4697;-59
2023/10/13 20:47:35;;;;;;;;;;;;;;;22.59;47.11;95313.66;10428484;28;1906;-60
2023/10/13 20:52:36;;;;;;;;;;;;;;;22.59;47.48;95307.59;10432910;28;2130;-59
2023/10/13 20:57:37;;;;;;;;;;;;;;;22.59;47.48;95308.38;10435519;28;1857;-59
2023/10/13 21:02:42;;;;;;;;;;;;;;;22.59;47.22;95305.75;10437768;28;2065;-59
2023/10/13 21:07:42;;;;;;;;;;;;;;;22.59;47.19;95299.66;10434548;28;1851;-60
2023/10/13 21:12:43;;;;;;;;;;;;;;;22.59;46.98;95305.75;10440285;28;2605;-60
2023/10/13 21:17:44;;;;;;;;;;;;;;;22.59;47.21;95294.38;10436982;28;1890;-60
2023/10/13 21:22:44;;;;;;;;;;;;;;;22.59;47.23;95292.53;10440775;28;1906;-59
2023/10/13 21:27:46;;;;;;;;;;;;;;;22.59;47.20;95295.16;10442665;28;1839;-60
2023/10/13 21:32:47;;;;;;;;;;;;;;;22.59;47.15;95302.31;10441642;28;1984;-59
2023/10/13 21:37:47;;;;;;;;;;;;;;;22.58;47.00;95290.19;10439302;28;1969;-59
2023/10/13 21:42:47;;;;;;;;;;;;;;;22.58;47.16;95277.78;10441053;28;4705;-59
2023/10/13 21:47:48;;;;;;;;;;;;;;;22.57;47.36;95276.16;10438531;28;1905;-59
2023/10/13 21:52:48;;;;;;;;;;;;;;;22.58;47.07;95280.41;10436456;28;2014;-59
2023/10/13 21:57:52;;;;;;;;;;;;;;;22.57;47.45;95278.81;10438088;28;2004;-60
2023/10/13 22:02:55;;;;;;;;;;;;;;;22.56;47.08;95263.25;10442564;28;2797;-60
2023/10/13 22:07:56;;;;;;;;;;;;;;;22.57;47.34;95265.59;10443965;28;1842;-59
2023/10/13 22:12:57;;;;;;;;;;;;;;;22.57;46.94;95262.16;10442094;28;1940;-60
2023/10/13 22:17:57;;;;;;;;;;;;;;;22.55;47.01;95257.19;10440456;28;1872;-60
2023/10/13 22:22:57;;;;;;;;;;;;;;;22.56;47.09;95273.81;10437380;28;2216;-60
2023/10/13 22:27:57;;;;;;;;;;;;;;;22.55;46.87;95267.75;10438991;28;2005;-59
2023/10/13 22:33:00;;;;;;;;;;;;;;;22.55;46.81;95267.75;10437512;28;2339;-59
2023/10/13 22:38:01;;;;;;;;;;;;;;;22.55;46.93;95267.75;10422597;28;1999;-59
2023/10/13 22:43:01;;;;;;;;;;;;;;;22.54;47.12;95260.13;10438301;28;1977;-59
2023/10/13 22:48:01;;;;;;;;;;;;;;;22.54;46.90;95260.94;10435776;28;2692;-59
2023/10/13 22:53:05;;;;;;;;;;;;;;;22.54;46.80;95255.66;10440695;28;2034;-59
2023/10/13 22:58:09;;;;;;;;;;;;;;;22.55;46.92;95257.19;10455660;28;1898;-59
2023/10/13 23:03:17;;;;;;;;;;;;;;;22.53;46.94;95248.78;10441207;28;2013;-59
2023/10/13 23:08:40;;;;;;;;;;;;;;;22.54;46.87;95244.28;10434327;28;1833;-59
2023/10/13 23:13:40;;;;;;;;;;;;;;;22.54;46.95;95250.34;10437072;28;1894;-59
2023/10/13 23:18:45;;;;;;;;;;;;;;;22.53;47.05;95246.13;10437146;28;1979;-59
2023/10/13 23:23:47;;;;;;;;;;;;;;;22.54;46.86;95239.00;10436369;28;1962;-59
2023/10/13 23:28:51;;;;;;;;;;;;;;;22.53;46.87;95240.84;10435043;28;2619;-59
2023/10/13 23:33:53;;;;;;;;;;;;;;;22.53;46.81;95238.22;10435302;28;1898;-59
2023/10/13 23:38:56;;;;;;;;;;;;;;;22.53;46.87;95242.72;10436485;28;1998;-59
2023/10/13 23:43:58;;;;;;;;;;;;;;;22.52;46.91;95241.16;10435087;28;4547;-59
2023/10/13 23:49:00;;;;;;;;;;;;;;;22.53;47.05;95240.06;10438625;28;1811;-59
2023/10/13 23:54:11;;;;;;;;;;;;;;;22.53;46.82;95245.34;10437381;28;1937;-59
2023/10/13 23:59:29;;;;;;;;;;;;;;;22.53;47.05;95237.44;10437167;28;1878;-59
